sensor_id;sensor_type;location;lat;lon;timestamp;P1;durP1;ratioP1;P2;durP2;ratioP2
8476;SDS011;4275;42.854;23.222;2024-03-17T00:00:20;15.43;;;14.73;;
8476;SDS011;4275;42.854;23.222;2024-03-17T00:02:46;16.00;;;15.20;;
8476;SDS011;4275;42.854;23.222;2024-03-17T00:05:14;15.77;;;15.07;;
8476;SDS011;4275;42.854;23.222;2024-03-17T00:07:41;15.50;;;14.80;;
8476;SDS011;4275;42.854;23.222;2024-03-17T00:10:08;15.50;;;14.80;;
8476;SDS011;4275;42.854;23.222;2024-03-17T00:12:35;15.80;;;15.10;;
8476;SDS011;4275;42.854;23.222;2024-03-17T00:15:03;14.73;;;14.03;;
8476;SDS011;4275;42.854;23.222;2024-03-17T00:17:29;14.13;;;13.53;;
8476;SDS011;4275;42.854;23.222;2024-03-17T00:19:57;13.40;;;12.90;;
8476;SDS011;4275;42.854;23.222;2024-03-17T00:22:27;13.10;;;12.60;;
8476;SDS011;4275;42.854;23.222;2024-03-17T00:24:55;13.20;;;12.70;;
8476;SDS011;4275;42.854;23.222;2024-03-17T00:27:21;13.50;;;13.00;;
8476;SDS011;4275;42.854;23.222;2024-03-17T00:29:48;13.23;;;12.73;;
8476;SDS011;4275;42.854;23.222;2024-03-17T00:32:15;14.23;;;13.67;;
8476;SDS011;4275;42.854;23.222;2024-03-17T00:34:42;14.23;;;13.63;;
8476;SDS011;4275;42.854;23.222;2024-03-17T00:37:09;14.50;;;13.90;;
8476;SDS011;4275;42.854;23.222;2024-03-17T00:39:35;14.43;;;13.83;;
8476;SDS011;4275;42.854;23.222;2024-03-17T00:42:04;13.40;;;12.90;;
8476;SDS011;4275;42.854;23.222;2024-03-17T00:44:29;12.40;;;12.00;;
8476;SDS011;4275;42.854;23.222;2024-03-17T00:46:56;12.60;;;12.17;;
8476;SDS011;4275;42.854;23.222;2024-03-17T00:49:22;11.83;;;11.43;;
8476;SDS011;4275;42.854;23.222;2024-03-17T00:51:49;11.07;;;10.77;;
8476;SDS011;4275;42.854;23.222;2024-03-17T00:54:15;10.10;;;9.80;;
8476;SDS011;4275;42.854;23.222;2024-03-17T00:56:43;9.80;;;9.50;;
8476;SDS011;4275;42.854;23.222;2024-03-17T00:59:10;10.50;;;10.20;;
8476;SDS011;4275;42.854;23.222;2024-03-17T01:01:38;10.73;;;10.43;;
8476;SDS011;4275;42.854;23.222;2024-03-17T01:04:04;9.00;;;8.77;;
8476;SDS011;4275;42.854;23.222;2024-03-17T01:06:31;9.50;;;9.20;;
8476;SDS011;4275;42.854;23.222;2024-03-17T01:08:58;10.90;;;10.60;;
8476;SDS011;4275;42.854;23.222;2024-03-17T01:11:25;10.90;;;10.60;;
8476;SDS011;4275;42.854;23.222;2024-03-17T01:13:51;10.23;;;9.93;;
8476;SDS011;4275;42.854;23.222;2024-03-17T01:16:22;10.80;;;10.50;;
8476;SDS011;4275;42.854;23.222;2024-03-17T01:18:48;11.40;;;11.00;;
8476;SDS011;4275;42.854;23.222;2024-03-17T01:21:15;11.70;;;11.30;;
8476;SDS011;4275;42.854;23.222;2024-03-17T01:23:41;10.30;;;10.00;;
8476;SDS011;4275;42.854;23.222;2024-03-17T01:26:08;10.40;;;10.10;;
8476;SDS011;4275;42.854;23.222;2024-03-17T01:28:35;11.30;;;11.00;;
8476;SDS011;4275;42.854;23.222;2024-03-17T01:31:00;11.13;;;10.83;;
8476;SDS011;4275;42.854;23.222;2024-03-17T01:33:33;10.13;;;9.83;;
8476;SDS011;4275;42.854;23.222;2024-03-17T01:35:59;10.20;;;9.90;;
8476;SDS011;4275;42.854;23.222;2024-03-17T01:38:26;11.40;;;11.07;;
8476;SDS011;4275;42.854;23.222;2024-03-17T01:40:52;11.00;;;10.70;;
8476;SDS011;4275;42.854;23.222;2024-03-17T01:43:19;9.60;;;9.30;;
8476;SDS011;4275;42.854;23.222;2024-03-17T01:45:45;9.50;;;9.20;;
8476;SDS011;4275;42.854;23.222;2024-03-17T01:48:13;10.30;;;10.00;;
8476;SDS011;4275;42.854;23.222;2024-03-17T01:50:44;10.47;;;10.17;;
8476;SDS011;4275;42.854;23.222;2024-03-17T01:53:13;9.80;;;9.50;;
8476;SDS011;4275;42.854;23.222;2024-03-17T01:55:40;10.20;;;9.90;;
8476;SDS011;4275;42.854;23.222;2024-03-17T01:58:10;11.07;;;10.77;;
8476;SDS011;4275;42.854;23.222;2024-03-17T02:00:36;11.23;;;10.83;;
8476;SDS011;4275;42.854;23.222;2024-03-17T02:03:04;10.00;;;9.70;;
8476;SDS011;4275;42.854;23.222;2024-03-17T02:05:31;10.00;;;9.70;;
8476;SDS011;4275;42.854;23.222;2024-03-17T02:08:00;10.70;;;10.40;;
8476;SDS011;4275;42.854;23.222;2024-03-17T02:10:26;11.03;;;10.73;;
8476;SDS011;4275;42.854;23.222;2024-03-17T02:12:53;10.10;;;9.80;;
8476;SDS011;4275;42.854;23.222;2024-03-17T02:15:20;9.80;;;9.50;;
8476;SDS011;4275;42.854;23.222;2024-03-17T02:17:47;10.63;;;10.33;;
8476;SDS011;4275;42.854;23.222;2024-03-17T02:20:13;10.73;;;10.43;;
8476;SDS011;4275;42.854;23.222;2024-03-17T02:22:41;9.60;;;9.30;;
8476;SDS011;4275;42.854;23.222;2024-03-17T02:25:07;9.57;;;9.27;;
8476;SDS011;4275;42.854;23.222;2024-03-17T02:27:34;10.90;;;10.60;;
8476;SDS011;4275;42.854;23.222;2024-03-17T02:30:00;11.00;;;10.70;;
8476;SDS011;4275;42.854;23.222;2024-03-17T02:32:27;10.97;;;10.67;;
8476;SDS011;4275;42.854;23.222;2024-03-17T02:34:53;9.77;;;9.47;;
8476;SDS011;4275;42.854;23.222;2024-03-17T02:37:22;10.60;;;10.30;;
8476;SDS011;4275;42.854;23.222;2024-03-17T02:39:50;11.00;;;10.70;;
8476;SDS011;4275;42.854;23.222;2024-03-17T02:42:16;10.53;;;10.23;;
8476;SDS011;4275;42.854;23.222;2024-03-17T02:44:43;9.77;;;9.47;;
8476;SDS011;4275;42.854;23.222;2024-03-17T02:47:10;10.33;;;10.03;;
8476;SDS011;4275;42.854;23.222;2024-03-17T02:49:39;10.33;;;10.03;;
8476;SDS011;4275;42.854;23.222;2024-03-17T02:52:09;8.90;;;8.70;;
8476;SDS011;4275;42.854;23.222;2024-03-17T02:54:38;8.77;;;8.57;;
8476;SDS011;4275;42.854;23.222;2024-03-17T02:57:07;9.70;;;9.40;;
8476;SDS011;4275;42.854;23.222;2024-03-17T02:59:33;8.90;;;8.70;;
8476;SDS011;4275;42.854;23.222;2024-03-17T03:02:01;7.60;;;7.40;;
8476;SDS011;4275;42.854;23.222;2024-03-17T03:04:28;7.33;;;7.13;;
8476;SDS011;4275;42.854;23.222;2024-03-17T03:06:55;7.90;;;7.70;;
8476;SDS011;4275;42.854;23.222;2024-03-17T03:09:22;8.10;;;7.90;;
8476;SDS011;4275;42.854;23.222;2024-03-17T03:11:56;6.80;;;6.60;;
8476;SDS011;4275;42.854;23.222;2024-03-17T03:14:25;6.80;;;6.60;;
8476;SDS011;4275;42.854;23.222;2024-03-17T03:16:52;7.30;;;7.10;;
8476;SDS011;4275;42.854;23.222;2024-03-17T03:19:19;6.90;;;6.70;;
8476;SDS011;4275;42.854;23.222;2024-03-17T03:21:46;6.20;;;6.10;;
8476;SDS011;4275;42.854;23.222;2024-03-17T03:24:13;5.90;;;5.80;;
8476;SDS011;4275;42.854;23.222;2024-03-17T03:26:41;7.03;;;6.83;;
8476;SDS011;4275;42.854;23.222;2024-03-17T03:29:08;6.90;;;6.70;;
8476;SDS011;4275;42.854;23.222;2024-03-17T03:31:37;5.83;;;5.73;;
8476;SDS011;4275;42.854;23.222;2024-03-17T03:34:05;5.90;;;5.80;;
8476;SDS011;4275;42.854;23.222;2024-03-17T03:36:34;6.90;;;6.70;;
8476;SDS011;4275;42.854;23.222;2024-03-17T03:39:01;6.20;;;6.10;;
8476;SDS011;4275;42.854;23.222;2024-03-17T03:41:30;5.50;;;5.40;;
8476;SDS011;4275;42.854;23.222;2024-03-17T03:43:58;5.40;;;5.30;;
8476;SDS011;4275;42.854;23.222;2024-03-17T03:46:25;6.03;;;5.93;;
8476;SDS011;4275;42.854;23.222;2024-03-17T03:48:53;5.60;;;5.50;;
8476;SDS011;4275;42.854;23.222;2024-03-17T03:51:20;5.80;;;5.70;;
8476;SDS011;4275;42.854;23.222;2024-03-17T03:53:47;5.83;;;5.73;;
8476;SDS011;4275;42.854;23.222;2024-03-17T03:56:14;5.60;;;5.50;;
8476;SDS011;4275;42.854;23.222;2024-03-17T03:58:41;5.60;;;5.50;;
8476;SDS011;4275;42.854;23.222;2024-03-17T04:01:11;5.50;;;5.40;;
8476;SDS011;4275;42.854;23.222;2024-03-17T04:03:40;6.00;;;5.90;;
8476;SDS011;4275;42.854;23.222;2024-03-17T04:06:10;5.50;;;5.40;;
8476;SDS011;4275;42.854;23.222;2024-03-17T04:08:41;5.50;;;5.40;;
8476;SDS011;4275;42.854;23.222;2024-03-17T04:11:08;5.80;;;5.70;;
8476;SDS011;4275;42.854;23.222;2024-03-17T04:13:36;5.60;;;5.50;;
8476;SDS011;4275;42.854;23.222;2024-03-17T04:16:04;5.50;;;5.40;;
8476;SDS011;4275;42.854;23.222;2024-03-17T04:18:32;5.53;;;5.43;;
8476;SDS011;4275;42.854;23.222;2024-03-17T04:21:01;5.90;;;5.80;;
8476;SDS011;4275;42.854;23.222;2024-03-17T04:23:31;5.70;;;5.60;;
8476;SDS011;4275;42.854;23.222;2024-03-17T04:25:59;6.00;;;5.90;;
8476;SDS011;4275;42.854;23.222;2024-03-17T04:28:28;5.80;;;5.70;;
8476;SDS011;4275;42.854;23.222;2024-03-17T04:31:02;6.00;;;5.90;;
8476;SDS011;4275;42.854;23.222;2024-03-17T04:33:30;5.83;;;5.73;;
8476;SDS011;4275;42.854;23.222;2024-03-17T04:35:58;6.10;;;6.00;;
8476;SDS011;4275;42.854;23.222;2024-03-17T04:38:25;6.30;;;6.20;;
8476;SDS011;4275;42.854;23.222;2024-03-17T04:40:53;6.50;;;6.30;;
8476;SDS011;4275;42.854;23.222;2024-03-17T04:43:29;6.20;;;6.10;;
8476;SDS011;4275;42.854;23.222;2024-03-17T04:46:01;6.23;;;6.13;;
8476;SDS011;4275;42.854;23.222;2024-03-17T04:48:32;7.20;;;7.00;;
8476;SDS011;4275;42.854;23.222;2024-03-17T04:51:00;6.40;;;6.30;;
8476;SDS011;4275;42.854;23.222;2024-03-17T04:53:27;6.50;;;6.30;;
8476;SDS011;4275;42.854;23.222;2024-03-17T04:56:00;5.80;;;5.70;;
8476;SDS011;4275;42.854;23.222;2024-03-17T04:58:30;7.10;;;6.90;;
8476;SDS011;4275;42.854;23.222;2024-03-17T05:00:56;5.90;;;5.80;;
8476;SDS011;4275;42.854;23.222;2024-03-17T05:03:23;6.10;;;6.00;;
8476;SDS011;4275;42.854;23.222;2024-03-17T05:05:57;5.90;;;5.80;;
8476;SDS011;4275;42.854;23.222;2024-03-17T05:08:26;6.17;;;6.07;;
8476;SDS011;4275;42.854;23.222;2024-03-17T05:10:55;6.60;;;6.40;;
8476;SDS011;4275;42.854;23.222;2024-03-17T05:13:24;6.70;;;6.50;;
8476;SDS011;4275;42.854;23.222;2024-03-17T05:15:51;6.73;;;6.53;;
8476;SDS011;4275;42.854;23.222;2024-03-17T05:18:18;6.40;;;6.27;;
8476;SDS011;4275;42.854;23.222;2024-03-17T05:20:47;6.90;;;6.70;;
8476;SDS011;4275;42.854;23.222;2024-03-17T05:23:22;7.13;;;6.93;;
8476;SDS011;4275;42.854;23.222;2024-03-17T05:25:51;7.37;;;7.17;;
8476;SDS011;4275;42.854;23.222;2024-03-17T05:28:18;7.40;;;7.20;;
8476;SDS011;4275;42.854;23.222;2024-03-17T05:30:46;7.80;;;7.60;;
8476;SDS011;4275;42.854;23.222;2024-03-17T05:33:15;8.60;;;8.40;;
8476;SDS011;4275;42.854;23.222;2024-03-17T05:35:48;8.50;;;8.30;;
8476;SDS011;4275;42.854;23.222;2024-03-17T05:38:15;8.60;;;8.40;;
8476;SDS011;4275;42.854;23.222;2024-03-17T05:40:41;8.60;;;8.40;;
8476;SDS011;4275;42.854;23.222;2024-03-17T05:43:09;8.27;;;8.07;;
8476;SDS011;4275;42.854;23.222;2024-03-17T05:45:36;8.40;;;8.20;;
8476;SDS011;4275;42.854;23.222;2024-03-17T05:48:04;8.30;;;8.10;;
8476;SDS011;4275;42.854;23.222;2024-03-17T05:50:32;9.07;;;8.87;;
8476;SDS011;4275;42.854;23.222;2024-03-17T05:53:01;9.50;;;9.20;;
8476;SDS011;4275;42.854;23.222;2024-03-17T05:55:28;9.07;;;8.87;;
8476;SDS011;4275;42.854;23.222;2024-03-17T05:57:55;9.60;;;9.30;;
8476;SDS011;4275;42.854;23.222;2024-03-17T06:00:22;9.70;;;9.40;;
8476;SDS011;4275;42.854;23.222;2024-03-17T06:02:48;9.80;;;9.50;;
8476;SDS011;4275;42.854;23.222;2024-03-17T06:05:17;10.07;;;9.77;;
8476;SDS011;4275;42.854;23.222;2024-03-17T06:07:44;11.53;;;11.17;;
8476;SDS011;4275;42.854;23.222;2024-03-17T06:10:12;12.30;;;11.90;;
8476;SDS011;4275;42.854;23.222;2024-03-17T06:12:39;13.33;;;12.87;;
8476;SDS011;4275;42.854;23.222;2024-03-17T06:15:07;13.90;;;13.40;;
8476;SDS011;4275;42.854;23.222;2024-03-17T06:17:34;15.20;;;14.60;;
8476;SDS011;4275;42.854;23.222;2024-03-17T06:20:01;15.00;;;14.40;;
8476;SDS011;4275;42.854;23.222;2024-03-17T06:22:30;15.90;;;15.20;;
8476;SDS011;4275;42.854;23.222;2024-03-17T06:24:57;15.80;;;15.10;;
8476;SDS011;4275;42.854;23.222;2024-03-17T06:27:24;16.77;;;15.97;;
8476;SDS011;4275;42.854;23.222;2024-03-17T06:29:51;16.73;;;15.93;;
8476;SDS011;4275;42.854;23.222;2024-03-17T06:32:18;16.70;;;15.90;;
8476;SDS011;4275;42.854;23.222;2024-03-17T06:34:45;17.20;;;16.30;;
8476;SDS011;4275;42.854;23.222;2024-03-17T06:37:12;17.30;;;16.40;;
8476;SDS011;4275;42.854;23.222;2024-03-17T06:39:41;16.90;;;16.10;;
8476;SDS011;4275;42.854;23.222;2024-03-17T06:42:08;17.73;;;16.83;;
8476;SDS011;4275;42.854;23.222;2024-03-17T06:44:36;18.13;;;17.13;;
8476;SDS011;4275;42.854;23.222;2024-03-17T06:47:05;18.30;;;17.30;;
8476;SDS011;4275;42.854;23.222;2024-03-17T06:49:32;18.45;;;17.45;;
8476;SDS011;4275;42.854;23.222;2024-03-17T06:51:59;17.83;;;16.92;;
8476;SDS011;4275;42.854;23.222;2024-03-17T06:54:26;17.53;;;16.63;;
8476;SDS011;4275;42.854;23.222;2024-03-17T06:56:54;17.50;;;16.60;;
8476;SDS011;4275;42.854;23.222;2024-03-17T06:59:21;18.50;;;17.50;;
8476;SDS011;4275;42.854;23.222;2024-03-17T07:01:49;17.30;;;16.40;;
8476;SDS011;4275;42.854;23.222;2024-03-17T07:04:16;18.25;;;17.35;;
8476;SDS011;4275;42.854;23.222;2024-03-17T07:06:43;21.85;;;20.65;;
8476;SDS011;4275;42.854;23.222;2024-03-17T07:09:10;18.33;;;17.33;;
8476;SDS011;4275;42.854;23.222;2024-03-17T07:11:37;18.80;;;17.80;;
8476;SDS011;4275;42.854;23.222;2024-03-17T07:14:05;18.13;;;17.13;;
8476;SDS011;4275;42.854;23.222;2024-03-17T07:16:32;18.42;;;17.42;;
8476;SDS011;4275;42.854;23.222;2024-03-17T07:19:01;19.00;;;17.90;;
8476;SDS011;4275;42.854;23.222;2024-03-17T07:21:28;19.15;;;18.05;;
8476;SDS011;4275;42.854;23.222;2024-03-17T07:23:54;18.40;;;17.40;;
8476;SDS011;4275;42.854;23.222;2024-03-17T07:26:24;20.38;;;19.20;;
8476;SDS011;4275;42.854;23.222;2024-03-17T07:28:51;19.27;;;18.17;;
8476;SDS011;4275;42.854;23.222;2024-03-17T07:31:19;19.13;;;18.02;;
8476;SDS011;4275;42.854;23.222;2024-03-17T07:33:46;18.75;;;17.75;;
8476;SDS011;4275;42.854;23.222;2024-03-17T07:36:14;19.73;;;18.63;;
8476;SDS011;4275;42.854;23.222;2024-03-17T07:38:41;19.67;;;18.60;;
8476;SDS011;4275;42.854;23.222;2024-03-17T07:41:08;19.77;;;18.67;;
8476;SDS011;4275;42.854;23.222;2024-03-17T07:43:36;27.90;;;26.30;;
8476;SDS011;4275;42.854;23.222;2024-03-17T07:46:05;20.60;;;19.40;;
8476;SDS011;4275;42.854;23.222;2024-03-17T07:48:34;20.50;;;19.30;;
8476;SDS011;4275;42.854;23.222;2024-03-17T07:51:03;26.13;;;24.55;;
8476;SDS011;4275;42.854;23.222;2024-03-17T07:53:31;20.98;;;19.67;;
8476;SDS011;4275;42.854;23.222;2024-03-17T07:55:59;20.88;;;19.58;;
8476;SDS011;4275;42.854;23.222;2024-03-17T07:58:27;23.20;;;21.80;;
8476;SDS011;4275;42.854;23.222;2024-03-17T08:00:56;23.02;;;21.65;;
8476;SDS011;4275;42.854;23.222;2024-03-17T08:03:25;20.65;;;19.35;;
8476;SDS011;4275;42.854;23.222;2024-03-17T08:05:54;21.05;;;19.75;;
8476;SDS011;4275;42.854;23.222;2024-03-17T08:08:21;21.00;;;19.80;;
8476;SDS011;4275;42.854;23.222;2024-03-17T08:10:48;21.70;;;20.40;;
8476;SDS011;4275;42.854;23.222;2024-03-17T08:13:16;57.08;;;53.20;;
8476;SDS011;4275;42.854;23.222;2024-03-17T08:15:43;22.42;;;21.02;;
8476;SDS011;4275;42.854;23.222;2024-03-17T08:18:11;23.17;;;21.58;;
8476;SDS011;4275;42.854;23.222;2024-03-17T08:20:38;19.13;;;17.83;;
8476;SDS011;4275;42.854;23.222;2024-03-17T08:23:07;19.67;;;18.27;;
8476;SDS011;4275;42.854;23.222;2024-03-17T08:25:34;20.08;;;18.67;;
8476;SDS011;4275;42.854;23.222;2024-03-17T08:28:01;19.98;;;18.58;;
8476;SDS011;4275;42.854;23.222;2024-03-17T08:30:28;21.17;;;19.67;;
8476;SDS011;4275;42.854;23.222;2024-03-17T08:32:55;21.92;;;20.33;;
8476;SDS011;4275;42.854;23.222;2024-03-17T08:35:23;21.20;;;19.60;;
8476;SDS011;4275;42.854;23.222;2024-03-17T08:37:50;21.55;;;19.95;;
8476;SDS011;4275;42.854;23.222;2024-03-17T08:40:20;22.60;;;20.90;;
8476;SDS011;4275;42.854;23.222;2024-03-17T08:42:47;22.60;;;20.80;;
8476;SDS011;4275;42.854;23.222;2024-03-17T08:45:14;23.30;;;21.50;;
8476;SDS011;4275;42.854;23.222;2024-03-17T08:47:42;22.52;;;20.75;;
8476;SDS011;4275;42.854;23.222;2024-03-17T08:50:09;22.75;;;20.95;;
8476;SDS011;4275;42.854;23.222;2024-03-17T08:52:37;22.60;;;20.85;;
8476;SDS011;4275;42.854;23.222;2024-03-17T08:55:05;22.33;;;20.55;;
8476;SDS011;4275;42.854;23.222;2024-03-17T08:57:37;22.17;;;20.48;;
8476;SDS011;4275;42.854;23.222;2024-03-17T09:00:05;22.73;;;20.83;;
8476;SDS011;4275;42.854;23.222;2024-03-17T09:02:34;22.83;;;21.02;;
8476;SDS011;4275;42.854;23.222;2024-03-17T09:05:01;22.17;;;20.38;;
8476;SDS011;4275;42.854;23.222;2024-03-17T09:07:29;22.27;;;20.58;;
8476;SDS011;4275;42.854;23.222;2024-03-17T09:09:56;23.13;;;21.23;;
8476;SDS011;4275;42.854;23.222;2024-03-17T09:12:23;23.60;;;21.70;;
8476;SDS011;4275;42.854;23.222;2024-03-17T09:14:52;22.92;;;21.05;;
8476;SDS011;4275;42.854;23.222;2024-03-17T09:17:19;23.33;;;21.42;;
8476;SDS011;4275;42.854;23.222;2024-03-17T09:19:46;23.20;;;21.30;;
8476;SDS011;4275;42.854;23.222;2024-03-17T09:22:13;22.80;;;21.00;;
8476;SDS011;4275;42.854;23.222;2024-03-17T09:24:40;22.70;;;20.90;;
8476;SDS011;4275;42.854;23.222;2024-03-17T09:27:07;22.17;;;20.38;;
8476;SDS011;4275;42.854;23.222;2024-03-17T09:29:34;22.25;;;20.45;;
8476;SDS011;4275;42.854;23.222;2024-03-17T09:32:03;21.63;;;19.92;;
8476;SDS011;4275;42.854;23.222;2024-03-17T09:34:30;21.67;;;19.98;;
8476;SDS011;4275;42.854;23.222;2024-03-17T09:36:57;21.95;;;20.15;;
8476;SDS011;4275;42.854;23.222;2024-03-17T09:39:24;22.30;;;20.50;;
8476;SDS011;4275;42.854;23.222;2024-03-17T09:41:51;29.98;;;27.73;;
8476;SDS011;4275;42.854;23.222;2024-03-17T09:44:18;21.65;;;19.95;;
8476;SDS011;4275;42.854;23.222;2024-03-17T09:46:45;22.58;;;20.67;;
8476;SDS011;4275;42.854;23.222;2024-03-17T09:49:14;22.65;;;20.75;;
8476;SDS011;4275;42.854;23.222;2024-03-17T09:51:42;23.02;;;21.13;;
8476;SDS011;4275;42.854;23.222;2024-03-17T09:54:17;22.55;;;20.65;;
8476;SDS011;4275;42.854;23.222;2024-03-17T09:56:45;23.77;;;21.75;;
8476;SDS011;4275;42.854;23.222;2024-03-17T09:59:12;23.60;;;21.60;;
8476;SDS011;4275;42.854;23.222;2024-03-17T10:01:39;25.38;;;23.27;;
8476;SDS011;4275;42.854;23.222;2024-03-17T10:04:08;23.70;;;21.70;;
8476;SDS011;4275;42.854;23.222;2024-03-17T10:06:43;23.92;;;21.83;;
8476;SDS011;4275;42.854;23.222;2024-03-17T10:09:14;23.80;;;21.70;;
8476;SDS011;4275;42.854;23.222;2024-03-17T10:11:46;23.73;;;21.63;;
8476;SDS011;4275;42.854;23.222;2024-03-17T10:14:16;23.58;;;21.48;;
8476;SDS011;4275;42.854;23.222;2024-03-17T10:16:43;23.27;;;21.27;;
8476;SDS011;4275;42.854;23.222;2024-03-17T10:19:11;23.33;;;21.33;;
8476;SDS011;4275;42.854;23.222;2024-03-17T10:21:41;24.17;;;22.08;;
8476;SDS011;4275;42.854;23.222;2024-03-17T10:24:10;23.48;;;21.48;;
8476;SDS011;4275;42.854;23.222;2024-03-17T10:26:40;23.17;;;21.17;;
8476;SDS011;4275;42.854;23.222;2024-03-17T10:29:17;23.75;;;21.75;;
8476;SDS011;4275;42.854;23.222;2024-03-17T10:31:47;23.42;;;21.42;;
8476;SDS011;4275;42.854;23.222;2024-03-17T10:34:15;24.58;;;22.38;;
8476;SDS011;4275;42.854;23.222;2024-03-17T10:36:45;23.92;;;21.92;;
8476;SDS011;4275;42.854;23.222;2024-03-17T10:39:25;24.23;;;22.13;;
8476;SDS011;4275;42.854;23.222;2024-03-17T10:41:58;25.20;;;23.08;;
8476;SDS011;4275;42.854;23.222;2024-03-17T10:44:26;25.05;;;22.95;;
8476;SDS011;4275;42.854;23.222;2024-03-17T10:46:54;24.60;;;22.50;;
8476;SDS011;4275;42.854;23.222;2024-03-17T10:49:23;25.60;;;23.40;;
8476;SDS011;4275;42.854;23.222;2024-03-17T10:51:58;24.85;;;22.75;;
8476;SDS011;4275;42.854;23.222;2024-03-17T10:54:27;25.15;;;23.05;;
8476;SDS011;4275;42.854;23.222;2024-03-17T10:56:55;24.55;;;22.45;;
8476;SDS011;4275;42.854;23.222;2024-03-17T10:59:26;24.67;;;22.48;;
8476;SDS011;4275;42.854;23.222;2024-03-17T11:02:02;24.90;;;22.80;;
8476;SDS011;4275;42.854;23.222;2024-03-17T11:04:31;25.10;;;23.00;;
8476;SDS011;4275;42.854;23.222;2024-03-17T11:07:00;24.60;;;22.52;;
8476;SDS011;4275;42.854;23.222;2024-03-17T11:09:28;24.70;;;22.60;;
8476;SDS011;4275;42.854;23.222;2024-03-17T11:11:55;23.30;;;21.30;;
8476;SDS011;4275;42.854;23.222;2024-03-17T11:14:22;23.75;;;21.75;;
8476;SDS011;4275;42.854;23.222;2024-03-17T11:16:49;24.70;;;22.60;;
8476;SDS011;4275;42.854;23.222;2024-03-17T11:19:16;24.88;;;22.77;;
8476;SDS011;4275;42.854;23.222;2024-03-17T11:21:43;25.40;;;23.20;;
8476;SDS011;4275;42.854;23.222;2024-03-17T11:24:19;24.73;;;22.63;;
8476;SDS011;4275;42.854;23.222;2024-03-17T11:26:47;24.80;;;22.70;;
8476;SDS011;4275;42.854;23.222;2024-03-17T11:29:28;25.33;;;23.20;;
8476;SDS011;4275;42.854;23.222;2024-03-17T11:31:57;24.30;;;22.20;;
8476;SDS011;4275;42.854;23.222;2024-03-17T11:34:28;24.25;;;22.15;;
8476;SDS011;4275;42.854;23.222;2024-03-17T11:36:55;24.95;;;22.85;;
8476;SDS011;4275;42.854;23.222;2024-03-17T11:42:21;24.08;;;21.98;;
8476;SDS011;4275;42.854;23.222;2024-03-17T11:44:59;24.00;;;21.90;;
8476;SDS011;4275;42.854;23.222;2024-03-17T11:47:37;24.23;;;22.13;;
8476;SDS011;4275;42.854;23.222;2024-03-17T11:50:05;24.50;;;22.40;;
8476;SDS011;4275;42.854;23.222;2024-03-17T11:52:35;23.73;;;21.73;;
8476;SDS011;4275;42.854;23.222;2024-03-17T11:55:03;23.60;;;21.60;;
8476;SDS011;4275;42.854;23.222;2024-03-17T11:57:30;23.77;;;21.75;;
8476;SDS011;4275;42.854;23.222;2024-03-17T11:59:57;23.58;;;21.58;;
8476;SDS011;4275;42.854;23.222;2024-03-17T12:02:24;24.33;;;22.30;;
8476;SDS011;4275;42.854;23.222;2024-03-17T12:04:52;24.27;;;22.17;;
8476;SDS011;4275;42.854;23.222;2024-03-17T12:07:19;25.35;;;23.25;;
8476;SDS011;4275;42.854;23.222;2024-03-17T12:09:49;25.00;;;22.90;;
8476;SDS011;4275;42.854;23.222;2024-03-17T12:12:18;25.20;;;23.10;;
8476;SDS011;4275;42.854;23.222;2024-03-17T12:14:46;24.92;;;22.85;;
8476;SDS011;4275;42.854;23.222;2024-03-17T12:17:14;25.15;;;23.15;;
8476;SDS011;4275;42.854;23.222;2024-03-17T12:19:44;24.10;;;22.10;;
8476;SDS011;4275;42.854;23.222;2024-03-17T12:22:14;23.95;;;22.05;;
8476;SDS011;4275;42.854;23.222;2024-03-17T12:24:43;24.40;;;22.40;;
8476;SDS011;4275;42.854;23.222;2024-03-17T12:27:17;23.45;;;21.55;;
8476;SDS011;4275;42.854;23.222;2024-03-17T12:29:45;23.80;;;21.90;;
8476;SDS011;4275;42.854;23.222;2024-03-17T12:32:14;23.88;;;22.13;;
8476;SDS011;4275;42.854;23.222;2024-03-17T12:34:41;24.20;;;22.20;;
8476;SDS011;4275;42.854;23.222;2024-03-17T12:37:11;24.08;;;22.08;;
8476;SDS011;4275;42.854;23.222;2024-03-17T12:39:41;23.55;;;21.65;;
8476;SDS011;4275;42.854;23.222;2024-03-17T12:42:08;24.30;;;22.30;;
8476;SDS011;4275;42.854;23.222;2024-03-17T12:44:37;24.15;;;22.25;;
8476;SDS011;4275;42.854;23.222;2024-03-17T12:47:07;23.98;;;22.08;;
8476;SDS011;4275;42.854;23.222;2024-03-17T12:49:43;24.33;;;22.42;;
8476;SDS011;4275;42.854;23.222;2024-03-17T12:52:16;24.75;;;22.75;;
8476;SDS011;4275;42.854;23.222;2024-03-17T12:54:43;24.42;;;22.45;;
8476;SDS011;4275;42.854;23.222;2024-03-17T12:57:20;24.30;;;22.40;;
8476;SDS011;4275;42.854;23.222;2024-03-17T13:00:21;24.65;;;22.75;;
8476;SDS011;4275;42.854;23.222;2024-03-17T13:02:59;24.77;;;22.88;;
8476;SDS011;4275;42.854;23.222;2024-03-17T13:05:26;25.60;;;23.70;;
8476;SDS011;4275;42.854;23.222;2024-03-17T13:07:53;24.75;;;22.92;;
8476;SDS011;4275;42.854;23.222;2024-03-17T13:10:22;24.65;;;22.75;;
8476;SDS011;4275;42.854;23.222;2024-03-17T13:12:57;25.08;;;23.08;;
8476;SDS011;4275;42.854;23.222;2024-03-17T13:15:27;24.23;;;22.33;;
8476;SDS011;4275;42.854;23.222;2024-03-17T13:17:56;24.00;;;22.13;;
8476;SDS011;4275;42.854;23.222;2024-03-17T13:20:23;23.90;;;22.00;;
8476;SDS011;4275;42.854;23.222;2024-03-17T13:22:51;24.25;;;22.25;;
8476;SDS011;4275;42.854;23.222;2024-03-17T13:25:19;23.90;;;22.00;;
8476;SDS011;4275;42.854;23.222;2024-03-17T13:27:49;24.58;;;22.58;;
8476;SDS011;4275;42.854;23.222;2024-03-17T13:30:17;24.52;;;22.52;;
8476;SDS011;4275;42.854;23.222;2024-03-17T13:32:49;24.50;;;22.50;;
8476;SDS011;4275;42.854;23.222;2024-03-17T13:35:21;24.70;;;22.70;;
8476;SDS011;4275;42.854;23.222;2024-03-17T13:37:49;23.98;;;22.08;;
8476;SDS011;4275;42.854;23.222;2024-03-17T13:40:17;23.98;;;22.05;;
8476;SDS011;4275;42.854;23.222;2024-03-17T13:42:45;24.00;;;22.10;;
8476;SDS011;4275;42.854;23.222;2024-03-17T13:45:12;24.30;;;22.40;;
8476;SDS011;4275;42.854;23.222;2024-03-17T13:47:40;24.52;;;22.63;;
8476;SDS011;4275;42.854;23.222;2024-03-17T13:50:09;23.58;;;21.67;;
8476;SDS011;4275;42.854;23.222;2024-03-17T13:52:38;24.55;;;22.55;;
8476;SDS011;4275;42.854;23.222;2024-03-17T13:55:06;24.35;;;22.42;;
8476;SDS011;4275;42.854;23.222;2024-03-17T13:57:38;24.65;;;22.65;;
8476;SDS011;4275;42.854;23.222;2024-03-17T14:00:05;24.75;;;22.75;;
8476;SDS011;4275;42.854;23.222;2024-03-17T14:02:33;24.60;;;22.60;;
8476;SDS011;4275;42.854;23.222;2024-03-17T14:05:00;24.70;;;22.70;;
8476;SDS011;4275;42.854;23.222;2024-03-17T14:07:34;25.45;;;23.35;;
8476;SDS011;4275;42.854;23.222;2024-03-17T14:10:01;24.55;;;22.55;;
8476;SDS011;4275;42.854;23.222;2024-03-17T14:12:28;25.63;;;23.52;;
8476;SDS011;4275;42.854;23.222;2024-03-17T14:14:56;25.52;;;23.42;;
8476;SDS011;4275;42.854;23.222;2024-03-17T14:17:23;25.00;;;22.95;;
8476;SDS011;4275;42.854;23.222;2024-03-17T14:19:50;24.00;;;22.08;;
8476;SDS011;4275;42.854;23.222;2024-03-17T14:22:18;24.33;;;22.42;;
8476;SDS011;4275;42.854;23.222;2024-03-17T14:24:46;23.77;;;21.88;;
8476;SDS011;4275;42.854;23.222;2024-03-17T14:27:15;23.70;;;21.90;;
8476;SDS011;4275;42.854;23.222;2024-03-17T14:29:42;23.17;;;21.38;;
8476;SDS011;4275;42.854;23.222;2024-03-17T14:32:09;22.80;;;21.10;;
8476;SDS011;4275;42.854;23.222;2024-03-17T14:34:39;22.40;;;20.70;;
8476;SDS011;4275;42.854;23.222;2024-03-17T14:37:06;22.30;;;20.60;;
8476;SDS011;4275;42.854;23.222;2024-03-17T14:39:33;21.73;;;19.98;;
8476;SDS011;4275;42.854;23.222;2024-03-17T14:42:03;21.40;;;19.80;;
8476;SDS011;4275;42.854;23.222;2024-03-17T14:44:31;21.30;;;19.70;;
8476;SDS011;4275;42.854;23.222;2024-03-17T14:47:00;21.25;;;19.70;;
8476;SDS011;4275;42.854;23.222;2024-03-17T14:49:27;21.45;;;19.85;;